Time;durP1;ratioP1;P1;durP2;ratioP2;P2;SDS_P1;SDS_P2;PMS_P1;PMS_P2;Temp;Humidity;BMP_temperature;BMP_pressure;BME280_temperature;BME280_humidity;BME280_pressure;Samples;Min_cycle;Max_cycle;Signal;HPM_P1;HPM_P2
2022/01/31 00:05:33;;;;;;;37.60;6.55;;;2.50;99.90;;;;;;12544920;28;20061;-80
2022/01/31 00:11:41;;;;;;;42.42;5.65;;;2.60;99.90;;;;;;12545799;28;20048;-80
2022/01/31 00:17:44;;;;;;;38.97;5.82;;;2.60;99.90;;;;;;12528118;28;20170;-80
2022/01/31 00:23:45;;;;;;;34.67;5.47;;;2.60;99.90;;;;;;12529236;28;20485;-81
2022/01/31 00:29:47;;;;;;;32.85;6.35;;;2.70;99.90;;;;;;12546076;28;20154;-80
2022/01/31 00:35:49;;;;;;;33.28;5.60;;;2.80;99.90;;;;;;12529941;28;20140;-80
2022/01/31 00:41:51;;;;;;;22.25;4.35;;;2.80;99.90;;;;;;12542810;28;20405;-80
2022/01/31 00:48:05;;;;;;;26.38;4.70;;;2.80;99.90;;;;;;12545788;28;20091;-80
2022/01/31 00:54:07;;;;;;;33.23;5.10;;;2.80;99.90;;;;;;12528936;28;20041;-80
2022/01/31 01:00:13;;;;;;;26.98;4.32;;;2.80;99.90;;;;;;12528137;28;20158;-80
2022/01/31 01:06:15;;;;;;;24.58;4.90;;;2.80;99.90;;;;;;12524029;28;20044;-80
2022/01/31 01:12:18;;;;;;;22.95;4.50;;;2.80;99.90;;;;;;12522666;28;20535;-80
2022/01/31 01:18:21;;;;;;;27.25;5.00;;;2.80;99.90;;;;;;12527325;28;20140;-80
2022/01/31 01:24:23;;;;;;;35.30;5.53;;;2.70;99.90;;;;;;12524877;28;20128;-79
2022/01/31 01:30:25;;;;;;;18.70;4.15;;;2.80;99.90;;;;;;12526490;28;20051;-81
2022/01/31 01:36:28;;;;;;;25.00;3.60;;;2.80;99.90;;;;;;12542026;28;20041;-81
2022/01/31 01:42:30;;;;;;;27.33;4.30;;;2.80;99.90;;;;;;12526360;28;20116;-81
2022/01/31 01:48:32;;;;;;;21.30;5.10;;;2.70;99.90;;;;;;12525507;28;20496;-80
2022/01/31 01:54:34;;;;;;;15.77;4.32;;;2.80;99.90;;;;;;12534991;28;20091;-80
2022/01/31 02:06:58;;;;;;;19.75;4.30;;;2.90;99.90;;;;;;12552741;28;20067;-81
2022/01/31 02:13:05;;;;;;;18.42;5.30;;;3.00;99.90;;;;;;12552077;28;20135;-79
2022/01/31 02:19:08;;;;;;;23.23;4.50;;;3.00;99.90;;;;;;12532725;28;20696;-80
2022/01/31 02:25:12;;;;;;;25.80;4.50;;;3.10;99.90;;;;;;12536289;28;20101;-80
2022/01/31 02:31:14;;;;;;;16.48;4.05;;;3.00;99.90;;;;;;12549404;28;20052;-80
2022/01/31 02:37:18;;;;;;;27.33;5.18;;;3.00;99.90;;;;;;12535711;28;20048;-81
2022/01/31 02:43:24;;;;;;;16.73;3.73;;;3.10;99.90;;;;;;12554858;28;20094;-80
2022/01/31 02:49:33;;;;;;;17.15;3.97;;;3.10;99.90;;;;;;12545850;28;20566;-81
2022/01/31 02:55:36;;;;;;;20.95;4.40;;;3.20;99.90;;;;;;12532386;28;20460;-81
2022/01/31 03:01:38;;;;;;;15.23;4.35;;;3.20;99.90;;;;;;12549102;28;20140;-80
2022/01/31 03:07:40;;;;;;;13.20;3.75;;;3.20;99.90;;;;;;12549027;28;20469;-81
2022/01/31 03:13:42;;;;;;;19.35;4.07;;;3.20;99.90;;;;;;12560922;28;20056;-80
2022/01/31 03:19:52;;;;;;;16.88;3.35;;;3.10;99.90;;;;;;12534443;28;20086;-80
2022/01/31 03:25:54;;;;;;;15.93;4.60;;;3.10;99.90;;;;;;12545824;28;20106;-81
2022/01/31 03:31:56;;;;;;;15.10;3.75;;;3.00;99.90;;;;;;12530713;28;20052;-81
2022/01/31 03:37:58;;;;;;;14.95;3.90;;;2.90;99.90;;;;;;12529230;28;20110;-81
2022/01/31 03:44:00;;;;;;;18.20;4.07;;;2.70;99.90;;;;;;12550584;28;20413;-82
2022/01/31 03:50:03;;;;;;;17.00;5.00;;;2.50;99.90;;;;;;12545900;28;20056;-82
2022/01/31 03:56:05;;;;;;;22.90;4.93;;;2.40;99.90;;;;;;12547088;28;20129;-83
2022/01/31 04:02:07;;;;;;;24.73;6.03;;;2.30;99.90;;;;;;12527582;28;20074;-82
2022/01/31 04:08:12;;;;;;;14.48;4.32;;;2.10;99.90;;;;;;12543154;28;20060;-84
2022/01/31 04:14:14;;;;;;;13.23;5.30;;;1.80;99.90;;;;;;12525893;28;20133;-84
2022/01/31 04:20:17;;;;;;;13.65;5.60;;;1.60;99.90;;;;;;12529794;28;20125;-87
2022/01/31 04:26:21;;;;;;;8.50;4.47;;;1.40;99.90;;;;;;12531287;28;20052;-84
2022/01/31 04:32:27;;;;;;;8.30;5.00;;;1.20;99.90;;;;;;12546904;28;20560;-86
2022/01/31 04:38:29;;;;;;;9.10;4.63;;;1.20;99.90;;;;;;12551517;28;20159;-87
2022/01/31 04:44:32;;;;;;;6.47;4.35;;;1.10;99.90;;;;;;12546876;28;20049;-87
2022/01/31 04:50:34;;;;;;;6.20;4.10;;;1.00;99.90;;;;;;12554476;28;20044;-87
2022/01/31 04:56:38;;;;;;;6.00;3.70;;;1.00;99.90;;;;;;12528639;28;20356;-86
2022/01/31 05:02:40;;;;;;;;;;;1.00;99.90;;;;;;12558279;28;20086;-88
2022/01/31 05:08:42;;;;;;;7.30;3.65;;;1.00;99.90;;;;;;12535163;28;20376;-89
2022/01/31 05:14:45;;;;;;;6.38;4.28;;;1.00;99.90;;;;;;12536294;28;20401;-90
2022/01/31 05:20:47;;;;;;;7.25;4.22;;;1.00;99.90;;;;;;12540665;28;20475;-90
2022/01/31 05:26:50;;;;;;;6.57;4.60;;;1.10;99.90;;;;;;12564555;28;20049;-89
2022/01/31 05:32:53;;;;;;;6.28;3.60;;;1.20;99.90;;;;;;12543365;28;20057;-87
2022/01/31 05:38:55;;;;;;;8.90;5.40;;;1.30;99.90;;;;;;12551738;28;20060;-90
2022/01/31 05:44:58;;;;;;;9.57;6.47;;;1.30;99.90;;;;;;12553203;28;20060;-88
2022/01/31 05:51:02;;;;;;;11.82;8.00;;;1.30;99.90;;;;;;12541001;28;20045;-88
2022/01/31 05:57:05;;;;;;;11.30;8.23;;;1.30;99.90;;;;;;12546278;28;20044;-86
2022/01/31 06:03:07;;;;;;;15.77;9.70;;;1.40;99.90;;;;;;12563023;28;20463;-86
2022/01/31 06:09:09;;;;;;;14.77;10.52;;;1.40;99.90;;;;;;12543359;28;20405;-87
2022/01/31 06:15:11;;;;;;;22.13;12.10;;;1.50;99.90;;;;;;12539355;28;20090;-86
2022/01/31 06:21:14;;;;;;;18.83;13.07;;;1.50;99.90;;;;;;12558254;28;20170;-85
2022/01/31 06:27:17;;;;;;;19.83;13.20;;;1.60;99.90;;;;;;12542701;28;20057;-84
2022/01/31 06:33:19;;;;;;;20.30;13.30;;;1.70;99.90;;;;;;12538019;28;20041;-84
2022/01/31 06:39:21;;;;;;;25.27;14.05;;;1.80;99.90;;;;;;12547312;28;20480;-84
2022/01/31 06:45:23;;;;;;;22.23;13.20;;;2.00;99.90;;;;;;12549076;28;20238;-85
2022/01/31 06:51:25;;;;;;;22.90;13.38;;;2.00;99.90;;;;;;12538616;28;20045;-86
2022/01/31 06:57:33;;;;;;;22.83;12.73;;;2.20;99.90;;;;;;12535158;28;20109;-83
2022/01/31 07:03:36;;;;;;;22.20;13.20;;;2.30;99.90;;;;;;12532211;28;20041;-84
2022/01/31 07:09:39;;;;;;;20.25;12.43;;;2.40;99.90;;;;;;12545818;28;20167;-84
2022/01/31 07:15:41;;;;;;;22.88;13.45;;;2.50;99.90;;;;;;12531801;28;20072;-84
2022/01/31 07:21:49;;;;;;;21.40;12.02;;;2.50;99.90;;;;;;12536457;28;20128;-83
2022/01/31 07:27:51;;;;;;;19.67;12.02;;;2.60;99.90;;;;;;12532651;28;20060;-84
2022/01/31 07:33:54;;;;;;;21.63;11.45;;;2.60;99.90;;;;;;12529662;28;20096;-84
2022/01/31 07:39:55;;;;;;;18.52;9.77;;;2.70;99.90;;;;;;12550279;28;20074;-84
2022/01/31 07:45:57;;;;;;;28.10;9.05;;;2.90;99.90;;;;;;12535841;28;20109;-85
2022/01/31 07:52:00;;;;;;;16.45;8.18;;;3.00;99.90;;;;;;12552047;28;20150;-84
2022/01/31 07:58:03;;;;;;;15.93;8.05;;;3.10;99.90;;;;;;12542102;28;20728;-84
2022/01/31 08:04:21;;;;;;;15.85;6.80;;;3.20;99.90;;;;;;12535262;28;20049;-82
2022/01/31 08:10:23;;;;;;;15.10;5.70;;;3.20;99.90;;;;;;12531823;28;20087;-84
2022/01/31 08:16:26;;;;;;;18.13;6.00;;;3.30;99.90;;;;;;12532297;28;20171;-84
2022/01/31 08:22:28;;;;;;;10.95;5.68;;;3.40;99.90;;;;;;12545878;28;20357;-83
2022/01/31 08:28:35;;;;;;;15.27;4.63;;;3.50;99.90;;;;;;12536249;28;20085;-83
2022/01/31 08:41:00;;;;;;;7.28;2.10;;;3.60;99.90;;;;;;12541738;28;20109;-83
2022/01/31 08:47:03;;;;;;;3.47;1.50;;;3.60;99.90;;;;;;12535216;28;20549;-82
2022/01/31 08:53:05;;;;;;;5.43;1.45;;;3.60;99.90;;;;;;12544805;28;20049;-83
2022/01/31 08:59:08;;;;;;;5.03;1.45;;;3.60;99.90;;;;;;12543306;28;20489;-83
2022/01/31 09:05:10;;;;;;;3.55;1.50;;;3.60;99.90;;;;;;12555883;28;20381;-83
2022/01/31 09:11:12;;;;;;;3.03;1.42;;;3.60;99.90;;;;;;12532817;28;20476;-83
2022/01/31 09:17:14;;;;;;;5.00;1.60;;;3.60;99.90;;;;;;12522635;28;20135;-82
2022/01/31 09:23:16;;;;;;;8.80;1.80;;;3.70;99.90;;;;;;12540139;28;20052;-82
2022/01/31 09:29:18;;;;;;;5.13;1.90;;;3.70;99.90;;;;;;12532048;28;20060;-83
2022/01/31 09:35:21;;;;;;;7.13;1.80;;;3.70;99.90;;;;;;12544194;28;20087;-83
2022/01/31 09:41:25;;;;;;;5.60;2.28;;;3.70;99.90;;;;;;12536958;28;20078;-84
2022/01/31 09:53:51;;;;;;;3.50;2.05;;;3.80;99.90;;;;;;12542803;28;20316;-83
2022/01/31 09:59:53;;;;;;;4.60;1.48;;;3.90;99.90;;;;;;12524761;28;20070;-83
2022/01/31 10:05:57;;;;;;;5.82;1.80;;;4.00;99.90;;;;;;12526569;28;20508;-83
2022/01/31 10:12:23;;;;;;;4.95;1.15;;;4.00;99.90;;;;;;12531673;28;20045;-83
2022/01/31 10:18:25;;;;;;;2.78;0.80;;;4.00;99.90;;;;;;12533289;28;20056;-82
2022/01/31 10:24:47;;;;;;;1.98;0.60;;;4.00;99.90;;;;;;12538026;28;20045;-82
2022/01/31 10:30:52;;;;;;;2.35;1.17;;;4.10;99.90;;;;;;12551517;28;20246;-83
2022/01/31 10:37:00;;;;;;;1.63;1.00;;;4.10;99.90;;;;;;12553869;28;20141;-83
2022/01/31 10:44:02;;;;;;;2.08;0.88;;;4.20;99.90;;;;;;12530097;28;20045;-82
2022/01/31 10:55:57;;;;;;;1.52;0.80;;;4.20;99.90;;;;;;12546247;28;20052;-83
2022/01/31 11:02:00;;;;;;;3.22;1.00;;;4.30;99.90;;;;;;12545564;28;20056;-84
2022/01/31 11:08:15;;;;;;;1.23;0.70;;;4.30;99.90;;;;;;12549501;28;20045;-83
2022/01/31 11:14:20;;;;;;;2.25;0.98;;;4.20;99.90;;;;;;12537495;28;20094;-83
2022/01/31 11:20:28;;;;;;;3.05;0.77;;;4.20;99.90;;;;;;12544242;28;20048;-83
2022/01/31 11:26:39;;;;;;;1.70;0.93;;;4.30;99.90;;;;;;12533828;28;20511;-83
2022/01/31 11:32:44;;;;;;;1.63;0.80;;;4.30;99.90;;;;;;12544127;28;20052;-83
2022/01/31 11:38:46;;;;;;;2.10;0.90;;;4.40;99.90;;;;;;12547310;28;20053;-83
2022/01/31 11:45:01;;;;;;;3.30;1.27;;;4.40;99.90;;;;;;12533126;28;20512;-83
2022/01/31 11:51:03;;;;;;;2.78;1.00;;;4.40;99.90;;;;;;12541434;28;20124;-84
2022/01/31 11:57:20;;;;;;;3.65;1.08;;;4.50;99.90;;;;;;12527506;28;20045;-84
2022/01/31 12:03:22;;;;;;;5.45;1.45;;;4.50;99.90;;;;;;12545752;28;20045;-83
2022/01/31 12:09:27;;;;;;;3.95;1.40;;;4.50;99.90;;;;;;12525745;28;20041;-84
2022/01/31 12:22:02;;;;;;;5.15;1.63;;;4.70;99.90;;;;;;12544728;28;20044;-84
2022/01/31 12:28:35;;;;;;;4.97;1.70;;;4.70;99.90;;;;;;12530928;28;20155;-84
2022/01/31 12:35:01;;;;;;;4.47;1.67;;;5.00;99.90;;;;;;12532589;28;20515;-84
2022/01/31 12:41:30;;;;;;;2.63;1.27;;;4.90;99.90;;;;;;12529504;28;20268;-84
2022/01/31 12:47:34;;;;;;;3.67;1.05;;;4.90;99.90;;;;;;12532194;28;20156;-83
2022/01/31 12:53:43;;;;;;;2.75;0.90;;;4.90;99.90;;;;;;12535733;28;20084;-83
2022/01/31 12:59:49;;;;;;;4.72;1.10;;;5.00;99.90;;;;;;12545497;28;20547;-84
2022/01/31 13:05:51;;;;;;;4.63;1.20;;;5.10;99.90;;;;;;12539566;28;22594;-85
2022/01/31 13:11:55;;;;;;;1.77;0.90;;;5.40;99.90;;;;;;12535951;28;20097;-84
2022/01/31 13:18:08;;;;;;;2.73;1.17;;;5.50;99.90;;;;;;12545452;28;20053;-84
2022/01/31 13:24:10;;;;;;;4.40;1.52;;;5.60;99.90;;;;;;12532850;28;20040;-83
2022/01/31 13:30:19;;;;;;;4.13;1.40;;;5.60;99.90;;;;;;12531212;28;20508;-83
2022/01/31 13:36:21;;;;;;;6.10;1.30;;;5.70;99.90;;;;;;12542031;28;20077;-83
2022/01/31 13:42:26;;;;;;;3.75;1.23;;;5.60;99.90;;;;;;12548386;28;20367;-83
2022/01/31 13:54:49;;;;;;;5.30;1.38;;;5.60;99.90;;;;;;12568527;28;20049;-84
2022/01/31 14:00:51;;;;;;;3.95;1.17;;;5.70;99.90;;;;;;12560053;28;20131;-83
2022/01/31 14:06:53;;;;;;;5.75;1.40;;;5.60;99.90;;;;;;12534566;28;20099;-83
2022/01/31 14:12:58;;;;;;;4.00;1.48;;;5.60;99.90;;;;;;12538176;28;20059;-82
2022/01/31 14:19:06;;;;;;;6.65;1.70;;;5.60;99.90;;;;;;12538856;28;20048;-83
2022/01/31 14:25:09;;;;;;;7.13;1.55;;;5.60;99.90;;;;;;12537587;28;20424;-82
2022/01/31 14:31:15;;;;;;;4.00;1.33;;;5.60;99.90;;;;;;12553217;28;20048;-83
2022/01/31 14:37:21;;;;;;;4.18;1.40;;;5.60;99.90;;;;;;12551888;28;20143;-84
2022/01/31 14:50:11;;;;;;;7.03;1.60;;;5.60;99.90;;;;;;12552410;28;20090;-83
2022/01/31 14:56:12;;;;;;;6.70;2.20;;;5.60;99.90;;;;;;12529481;28;20497;-84
2022/01/31 15:02:14;;;;;;;8.35;2.10;;;5.50;99.90;;;;;;12533704;28;20448;-84
2022/01/31 15:08:31;;;;;;;6.85;1.73;;;5.60;99.90;;;;;;12540602;28;20040;-83
2022/01/31 15:14:34;;;;;;;10.00;1.88;;;5.60;99.90;;;;;;12541083;28;20334;-83
2022/01/31 15:20:36;;;;;;;6.40;1.30;;;5.70;99.90;;;;;;12548102;28;20110;-83
2022/01/31 15:26:38;;;;;;;6.90;1.40;;;5.70;99.90;;;;;;12533000;28;20094;-85
2022/01/31 15:32:40;;;;;;;12.95;2.17;;;5.70;99.90;;;;;;12538865;28;20172;-83
2022/01/31 15:38:43;;;;;;;9.23;1.70;;;5.70;99.90;;;;;;12534310;28;20659;-82
2022/01/31 15:44:54;;;;;;;9.80;1.90;;;5.80;99.90;;;;;;12548941;28;20048;-82
2022/01/31 15:50:56;;;;;;;8.88;1.60;;;5.80;99.90;;;;;;12532595;28;20527;-82
2022/01/31 15:56:58;;;;;;;9.45;2.25;;;5.90;99.90;;;;;;12526232;28;20338;-82
2022/01/31 16:03:03;;;;;;;8.77;1.65;;;5.80;99.90;;;;;;12545889;28;20041;-82
2022/01/31 16:09:05;;;;;;;5.32;1.58;;;5.80;99.90;;;;;;12549673;28;20044;-82
2022/01/31 16:15:07;;;;;;;6.70;1.55;;;5.90;99.90;;;;;;12540357;28;20576;-83
2022/01/31 16:21:12;;;;;;;10.35;1.92;;;5.80;99.90;;;;;;12542650;28;20458;-84
2022/01/31 16:27:17;;;;;;;13.50;1.85;;;5.80;99.90;;;;;;12525961;28;20049;-84
2022/01/31 16:33:19;;;;;;;9.73;1.88;;;5.70;99.90;;;;;;12537223;28;20139;-84
2022/01/31 16:39:21;;;;;;;10.45;1.88;;;5.60;99.90;;;;;;12549620;28;20055;-84
2022/01/31 16:45:23;;;;;;;9.35;3.53;;;5.60;99.90;;;;;;12535718;28;20067;-84
2022/01/31 16:51:25;;;;;;;12.13;5.93;;;5.40;99.90;;;;;;12576410;28;20053;-82
2022/01/31 16:57:27;;;;;;;12.60;6.70;;;5.20;99.90;;;;;;12554721;28;20095;-83
2022/01/31 17:03:30;;;;;;;14.63;8.30;;;5.00;99.90;;;;;;12540753;28;20105;-81
2022/01/31 17:09:34;;;;;;;15.32;9.40;;;4.70;99.90;;;;;;12550654;28;20198;-82
2022/01/31 17:15:36;;;;;;;14.00;9.20;;;4.50;99.90;;;;;;12547595;28;20083;-81
2022/01/31 17:21:39;;;;;;;13.70;8.82;;;4.30;99.90;;;;;;12531429;28;20060;-80
2022/01/31 17:27:41;;;;;;;15.38;9.25;;;4.20;99.90;;;;;;12524986;28;20053;-85
2022/01/31 17:33:44;;;;;;;17.05;10.18;;;4.20;99.90;;;;;;12546860;28;20063;-81
2022/01/31 17:39:47;;;;;;;18.98;12.07;;;4.10;99.90;;;;;;12564559;28;20762;-82
2022/01/31 17:45:49;;;;;;;18.73;11.93;;;3.90;99.90;;;;;;12564117;28;20040;-81
2022/01/31 17:51:56;;;;;;;21.20;12.77;;;3.70;99.90;;;;;;12544964;28;20064;-81
2022/01/31 17:57:59;;;;;;;22.25;13.57;;;3.50;99.90;;;;;;12548790;28;20182;-81
2022/01/31 18:04:00;;;;;;;21.42;13.75;;;3.50;99.90;;;;;;12553523;28;20144;-81
2022/01/31 18:10:03;;;;;;;25.08;14.65;;;3.50;99.90;;;;;;12555411;28;20045;-81
2022/01/31 18:16:05;;;;;;;25.42;14.30;;;3.50;99.90;;;;;;12561571;28;20068;-82
2022/01/31 18:22:08;;;;;;;26.50;15.18;;;3.50;99.90;;;;;;12549210;28;20131;-81
2022/01/31 18:28:16;;;;;;;22.15;13.23;;;3.40;99.90;;;;;;12550758;28;20052;-80
2022/01/31 18:34:18;;;;;;;21.88;13.15;;;3.40;99.90;;;;;;12542616;28;20527;-81
2022/01/31 18:40:22;;;;;;;24.60;14.13;;;3.40;99.90;;;;;;12554635;28;20057;-80
2022/01/31 18:46:24;;;;;;;26.50;15.20;;;3.50;99.90;;;;;;12535274;28;20056;-80
2022/01/31 18:52:28;;;;;;;26.77;15.65;;;3.30;99.90;;;;;;12544994;28;20136;-80
2022/01/31 18:58:32;;;;;;;29.27;16.88;;;3.40;99.90;;;;;;12560138;28;20520;-80
2022/01/31 19:04:37;;;;;;;31.38;17.42;;;3.20;99.90;;;;;;12538748;28;20048;-81
2022/01/31 19:16:51;;;;;;;35.42;20.00;;;3.10;99.90;;;;;;12553198;28;20131;-80
2022/01/31 19:22:53;;;;;;;34.90;19.77;;;3.20;99.90;;;;;;12535047;28;20098;-80
2022/01/31 19:28:55;;;;;;;38.00;19.75;;;3.20;99.90;;;;;;12543355;28;20517;-80
2022/01/31 19:34:57;;;;;;;33.33;17.98;;;3.10;99.90;;;;;;12554661;28;20052;-81
2022/01/31 19:47:21;;;;;;;31.75;18.05;;;3.10;99.90;;;;;;12557225;28;20045;-80
2022/01/31 19:53:25;;;;;;;32.70;18.90;;;3.10;99.90;;;;;;12555033;28;20249;-82
2022/01/31 19:59:27;;;;;;;35.45;17.92;;;3.00;99.90;;;;;;12536661;28;20045;-80
2022/01/31 20:05:30;;;;;;;39.72;19.67;;;3.20;99.90;;;;;;12554433;28;20044;-81
2022/01/31 20:11:32;;;;;;;31.90;18.05;;;3.10;99.90;;;;;;12541509;28;20094;-80
2022/01/31 20:17:34;;;;;;;35.50;17.15;;;2.90;99.90;;;;;;12542775;28;20957;-81
2022/01/31 20:23:36;;;;;;;35.10;18.58;;;3.00;99.90;;;;;;12552048;28;20702;-81
2022/01/31 20:29:39;;;;;;;34.35;18.60;;;2.90;99.90;;;;;;12543705;28;20175;-80
2022/01/31 20:35:44;;;;;;;31.67;18.00;;;3.00;99.90;;;;;;12550366;28;20052;-80
2022/01/31 20:41:47;;;;;;;37.70;19.20;;;3.00;99.90;;;;;;12536343;28;20084;-81
2022/01/31 20:47:53;;;;;;;36.83;18.17;;;3.00;99.90;;;;;;12551728;28;20052;-81
2022/01/31 20:53:55;;;;;;;34.97;18.85;;;2.90;99.90;;;;;;12536414;28;20139;-80
2022/01/31 20:59:57;;;;;;;34.72;19.00;;;3.10;99.90;;;;;;12549721;28;20234;-80
2022/01/31 21:06:03;;;;;;;33.72;17.90;;;2.90;99.90;;;;;;12556196;28;20068;-80
2022/01/31 21:12:05;;;;;;;39.38;19.55;;;2.90;99.90;;;;;;12535409;28;20136;-80
2022/01/31 21:18:09;;;;;;;39.63;18.48;;;3.00;99.90;;;;;;12533665;28;20048;-81
2022/01/31 21:24:11;;;;;;;37.72;19.25;;;3.00;99.90;;;;;;12551980;28;20045;-80
2022/01/31 21:30:15;;;;;;;36.35;19.33;;;3.00;99.90;;;;;;12529811;28;20080;-80
2022/01/31 21:36:19;;;;;;;39.37;19.10;;;2.90;99.90;;;;;;12551876;28;20440;-80
2022/01/31 21:42:21;;;;;;;35.33;18.00;;;3.00;99.90;;;;;;12537627;28;20067;-80
2022/01/31 21:48:23;;;;;;;32.72;17.08;;;2.90;99.90;;;;;;12549410;28;20397;-80
2022/01/31 21:54:27;;;;;;;30.08;17.48;;;2.90;99.90;;;;;;12533315;28;20499;-80
2022/01/31 22:00:29;;;;;;;29.10;16.50;;;2.90;99.90;;;;;;12536533;28;20128;-80
2022/01/31 22:06:31;;;;;;;33.17;18.23;;;2.70;99.90;;;;;;12530030;28;20540;-80
2022/01/31 22:12:34;;;;;;;29.80;16.45;;;2.70;99.90;;;;;;12530954;28;20057;-80
2022/01/31 22:18:36;;;;;;;31.63;15.48;;;2.70;99.90;;;;;;12541531;28;20067;-81
2022/01/31 22:24:38;;;;;;;30.42;16.08;;;2.70;99.90;;;;;;12535539;28;20044;-80
2022/01/31 22:30:39;;;;;;;32.35;16.45;;;2.80;99.90;;;;;;12539723;28;20053;-81
2022/01/31 22:36:43;;;;;;;29.52;16.48;;;2.80;99.90;;;;;;12534154;28;20061;-80
2022/01/31 22:42:44;;;;;;;28.27;15.25;;;2.80;99.90;;;;;;12540951;28;20094;-81
2022/01/31 22:48:47;;;;;;;26.98;14.07;;;2.80;99.90;;;;;;12507354;28;20530;-81
2022/01/31 22:54:49;;;;;;;27.63;14.98;;;2.80;99.90;;;;;;12504205;28;20111;-80
2022/01/31 23:00:51;;;;;;;25.42;14.85;;;2.80;99.90;;;;;;12501703;28;20046;-81
2022/01/31 23:06:53;;;;;;;26.35;14.18;;;2.80;99.90;;;;;;12507928;28;20045;-80
2022/01/31 23:12:59;;;;;;;32.88;15.20;;;2.80;99.90;;;;;;12515551;28;20095;-80
2022/01/31 23:19:15;;;;;;;28.20;15.57;;;2.80;99.90;;;;;;12516074;28;20558;-80
2022/01/31 23:51:04;;;;;;;27.58;14.43;;;3.00;99.90;;;;;;12549051;28;20334;-80
